This is the latest recevied weather packets stored in our database for station/object N4ZIQ. If no packets are shown the sender has not sent any weather packets the latest 10 day(s).
| Time | Temp. | Humidity | Pressure | Rain* | Wind** | Luminosity | Snow |
|---|---|---|---|---|---|---|---|
| 1778196047 | 31.67° C | 47% | 1012.9 hPa | 0 mm | - | 54 W/m² | - |
| 1778195752 | 31.67° C | 48% | 1012.9 hPa | 0 mm | - | 40 W/m² | - |
| 1778195444 | 31.67° C | 47% | 1012.8 hPa | 0 mm | - | 26 W/m² | - |
| 1778195148 | 32.78° C | 47% | 1012.8 hPa | 0 mm | - | 53 W/m² | - |
| 1778194859 | 32.78° C | 45% | 1012.9 hPa | 0 mm | - | 120 W/m² | - |
| 1778194544 | 32.78° C | 47% | 1012.9 hPa | 0 mm | - | 146 W/m² | - |
| 1778194244 | 32.78° C | 46% | 1012.8 hPa | 0 mm | - | 165 W/m² | - |
| 1778193976 | 32.78° C | 45% | 1012.8 hPa | 0 mm | - | 183 W/m² | - |
| 1778193647 | 32.78° C | 48% | 1012.7 hPa | 0 mm | - | 200 W/m² | - |
| 1778193348 | 32.22° C | 49% | 1012.8 hPa | 0 mm | - | 220 W/m² | - |
| 1778193056 | 31.11° C | 50% | 1012.9 hPa | 0 mm | - | 234 W/m² | - |
| 1778192749 | 30.56° C | 52% | 1012.8 hPa | 0 mm | - | 229 W/m² | - |
| 1778192447 | 31.11° C | 52% | 1012.8 hPa | 0 mm | - | 243 W/m² | - |
| 1778192154 | 30.56° C | 52% | 1012.8 hPa | 0 mm | - | 278 W/m² | - |
| 1778191846 | 30.56° C | 55% | 1012.7 hPa | 0 mm | - | 243 W/m² | - |
| 1778191546 | 32.22° C | 47% | 1012.8 hPa | 0 mm | - | 309 W/m² | - |
| 1778191257 | 32.78° C | 47% | 1012.7 hPa | 0 mm | - | 325 W/m² | - |
| 1778190947 | 32.78° C | 47% | 1013 hPa | 0 mm | - | 341 W/m² | - |
| 1778190647 | 33.89° C | 43% | 1012.9 hPa | 0 mm | - | 360 W/m² | - |
| 1778190353 | 33.89° C | 42% | 1012.9 hPa | 0 mm | - | 374 W/m² | - |
| 1778190048 | 33.89° C | 43% | 1012.9 hPa | 0 mm | - | 390 W/m² | - |
| 1778189744 | 33.89° C | 43% | 1012.9 hPa | 0 mm | - | 401 W/m² | - |
| 1778189454 | 33.89° C | 43% | 1012.9 hPa | 0 mm | - | 418 W/m² | - |
| 1778189148 | 33.89° C | 43% | 1013 hPa | 0 mm | - | 436 W/m² | - |
| 1778188849 | 33.89° C | 43% | 1013.1 hPa | 0 mm | - | 452 W/m² | - |
* Rain latest hour (hover to see other rain measurements)
** Current wind speed in m/s (hover to see current wind gust speed)